Time;durP1;ratioP1;P1;durP2;ratioP2;P2;SDS_P1;SDS_P2;PMS_P1;PMS_P2;Temp;Humidity;BMP_temperature;BMP_pressure;BME280_temperature;BME280_humidity;BME280_pressure;Samples;Min_cycle;Max_cycle;Signal;HPM_P1;HPM_P2
2021/04/20 00:01:49;;;;;;;;;;;;;;;2.70;100.00;99229.53;5053278;28;19925;-77
2021/04/20 00:04:16;;;;;;;;;;;;;;;2.74;100.00;99230.41;5053078;28;19928;-77
2021/04/20 00:06:43;;;;;;;;;;;;;;;2.74;100.00;99235.94;5052847;28;19946;-77
2021/04/20 00:09:09;;;;;;;;;;;;;;;2.71;100.00;99231.94;5051947;28;20280;-77
2021/04/20 00:11:37;;;;;;;;;;;;;;;2.57;100.00;99230.88;5052954;28;19925;-77
2021/04/20 00:14:04;;;;;;;;;;;;;;;2.42;100.00;99223.50;5051828;28;19925;-77
2021/04/20 00:16:31;;;;;;;;;;;;;;;2.36;100.00;99219.47;5053111;28;19967;-77
2021/04/20 00:19:00;;;;;;;;;;;;;;;2.21;100.00;99228.63;5052621;28;20245;-77
2021/04/20 00:21:27;;;;;;;;;;;;;;;2.22;100.00;99219.19;5052765;28;19932;-77
2021/04/20 00:23:53;;;;;;;;;;;;;;;2.22;100.00;99222.75;5052928;28;19929;-77
2021/04/20 00:26:20;;;;;;;;;;;;;;;2.27;100.00;99227.97;5052784;28;19929;-77
2021/04/20 00:28:47;;;;;;;;;;;;;;;2.21;100.00;99226.69;5051807;28;19981;-77
2021/04/20 00:31:13;;;;;;;;;;;;;;;2.12;100.00;99225.31;5051473;28;19929;-77
2021/04/20 00:33:41;;;;;;;;;;;;;;;2.06;100.00;99219.25;5084732;28;19937;-77
2021/04/20 00:36:08;;;;;;;;;;;;;;;2.09;100.00;99220.53;5052454;28;19929;-77
2021/04/20 00:38:35;;;;;;;;;;;;;;;2.26;100.00;99220.06;5051660;28;19925;-77
2021/04/20 00:41:03;;;;;;;;;;;;;;;2.10;100.00;99222.09;5052563;28;20276;-77
2021/04/20 00:43:36;;;;;;;;;;;;;;;2.16;100.00;99215.94;5052782;28;20324;-77
2021/04/20 00:46:09;;;;;;;;;;;;;;;1.61;100.00;99219.91;5052486;28;20019;-77
2021/04/20 00:48:37;;;;;;;;;;;;;;;2.03;100.00;99211.72;5088672;28;19932;-77
2021/04/20 00:51:04;;;;;;;;;;;;;;;1.88;100.00;99212.59;5056183;28;20403;-77
2021/04/20 00:53:31;;;;;;;;;;;;;;;2.04;100.00;99213.34;5055057;28;20288;-77
2021/04/20 00:55:58;;;;;;;;;;;;;;;1.98;100.00;99208.47;5056619;28;19924;-77
2021/04/20 00:58:25;;;;;;;;;;;;;;;1.94;100.00;99213.91;5056206;28;19935;-77
2021/04/20 01:00:52;;;;;;;;;;;;;;;1.96;100.00;99216.28;5056054;28;19928;-77
2021/04/20 01:03:19;;;;;;;;;;;;;;;1.88;100.00;99210.66;5056056;28;19932;-77
2021/04/20 01:05:46;;;;;;;;;;;;;;;1.88;100.00;99209.06;5054777;28;19936;-77
2021/04/20 01:08:15;;;;;;;;;;;;;;;1.89;100.00;99216.97;5056048;28;19929;-77
2021/04/20 01:10:43;;;;;;;;;;;;;;;1.98;100.00;99214.78;5056074;28;20387;-77
2021/04/20 01:13:13;;;;;;;;;;;;;;;1.97;100.00;99204.91;5056064;28;19970;-77
2021/04/20 01:15:44;;;;;;;;;;;;;;;1.98;100.00;99208.47;5087921;28;19943;-77
2021/04/20 01:18:22;;;;;;;;;;;;;;;1.92;100.00;99198.91;5055597;28;20027;-77
2021/04/20 01:20:50;;;;;;;;;;;;;;;1.71;100.00;99213.81;5055750;28;19931;-77
2021/04/20 01:23:39;;;;;;;;;;;;;;;1.67;100.00;99215.72;5055891;28;19932;-77
2021/04/20 01:26:07;;;;;;;;;;;;;;;1.61;100.00;99210.84;5038252;28;20023;-77
2021/04/20 01:28:35;;;;;;;;;;;;;;;1.66;100.00;99203.13;5071028;28;19925;-77
2021/04/20 01:31:03;;;;;;;;;;;;;;;1.59;100.00;99208.47;5087375;28;19960;-77
2021/04/20 01:33:30;;;;;;;;;;;;;;;1.50;100.00;99210.63;5055604;28;19978;-77
2021/04/20 01:35:58;;;;;;;;;;;;;;;1.42;100.00;99208.84;5055503;28;19925;-77
2021/04/20 01:38:25;;;;;;;;;;;;;;;1.66;100.00;99211.38;5055562;28;20402;-77
2021/04/20 01:40:51;;;;;;;;;;;;;;;1.64;100.00;99210.94;5087848;28;20140;-77
2021/04/20 01:43:18;;;;;;;;;;;;;;;1.62;100.00;99213.25;5054073;28;20288;-77
2021/04/20 01:45:45;;;;;;;;;;;;;;;1.65;100.00;99212.53;5055389;28;19971;-77
2021/04/20 01:48:12;;;;;;;;;;;;;;;1.76;100.00;99212.75;5087316;28;19959;-77
2021/04/20 01:50:42;;;;;;;;;;;;;;;1.56;100.00;99214.69;5055382;28;19925;-77
2021/04/20 01:53:09;;;;;;;;;;;;;;;1.55;100.00;99207.59;5087502;28;19932;-77
2021/04/20 01:55:36;;;;;;;;;;;;;;;1.60;100.00;99204.56;5055353;28;20395;-77
2021/04/20 01:58:04;;;;;;;;;;;;;;;1.65;100.00;99201.50;5054919;28;20035;-77
2021/04/20 02:00:30;;;;;;;;;;;;;;;1.64;100.00;99205.41;5053685;28;19932;-77
2021/04/20 02:02:58;;;;;;;;;;;;;;;1.58;100.00;99195.84;5087023;28;19931;-77
2021/04/20 02:05:24;;;;;;;;;;;;;;;1.65;100.00;99204.25;5054924;28;19925;-77
2021/04/20 02:07:51;;;;;;;;;;;;;;;1.65;100.00;99201.50;5055069;28;19929;-77
2021/04/20 02:10:18;;;;;;;;;;;;;;;1.68;100.00;99200.78;5054715;28;19924;-77
2021/04/20 02:12:45;;;;;;;;;;;;;;;1.57;100.00;99198.97;5054910;28;19983;-77
2021/04/20 02:15:13;;;;;;;;;;;;;;;1.48;100.00;99196.44;5054741;28;19986;-77
2021/04/20 02:17:43;;;;;;;;;;;;;;;1.45;100.00;99208.13;5086350;28;20368;-77
2021/04/20 02:20:12;;;;;;;;;;;;;;;1.43;100.00;99202.22;5055017;28;20008;-77
2021/04/20 02:22:39;;;;;;;;;;;;;;;1.43;100.00;99196.72;5054650;28;19998;-78
2021/04/20 02:25:07;;;;;;;;;;;;;;;1.42;100.00;99195.09;5054702;28;19952;-77
2021/04/20 02:27:35;;;;;;;;;;;;;;;1.43;100.00;99193.94;5054499;28;19925;-77
2021/04/20 02:30:06;;;;;;;;;;;;;;;1.53;100.00;99198.88;5054639;28;20392;-77
2021/04/20 02:32:34;;;;;;;;;;;;;;;1.51;100.00;99200.41;5054205;28;20296;-77
2021/04/20 02:35:02;;;;;;;;;;;;;;;1.38;100.00;99196.16;5054553;28;19924;-77
2021/04/20 02:37:29;;;;;;;;;;;;;;;1.05;100.00;99204.88;5054464;28;19925;-77
2021/04/20 02:39:56;;;;;;;;;;;;;;;1.10;100.00;99206.53;5047169;28;20007;-77
2021/04/20 02:42:24;;;;;;;;;;;;;;;0.99;100.00;99206.28;5053233;28;19932;-77
2021/04/20 02:44:52;;;;;;;;;;;;;;;1.07;100.00;99202.56;5054026;28;20294;-77
2021/04/20 02:47:19;;;;;;;;;;;;;;;1.06;100.00;99200.94;5054215;28;20019;-77
2021/04/20 02:49:46;;;;;;;;;;;;;;;1.12;100.00;99196.78;5052897;28;19948;-77
2021/04/20 02:52:13;;;;;;;;;;;;;;;1.07;100.00;99197.06;5052836;28;19925;-77
2021/04/20 02:54:40;;;;;;;;;;;;;;;1.03;100.00;99196.16;5053047;28;19932;-77
2021/04/20 02:57:07;;;;;;;;;;;;;;;0.99;100.00;99202.75;5086138;28;19952;-77
2021/04/20 02:59:35;;;;;;;;;;;;;;;1.00;100.00;99194.13;5085674;28;19928;-77
2021/04/20 03:02:03;;;;;;;;;;;;;;;1.03;100.00;99198.91;5085784;28;19970;-78
2021/04/20 03:04:30;;;;;;;;;;;;;;;1.02;100.00;99197.31;5054073;28;19925;-77
2021/04/20 03:06:56;;;;;;;;;;;;;;;0.99;100.00;99197.22;5053976;28;19931;-77
2021/04/20 03:09:23;;;;;;;;;;;;;;;0.97;100.00;99186.59;5052024;28;19954;-77
2021/04/20 03:11:54;;;;;;;;;;;;;;;0.84;100.00;99189.78;5054015;28;20399;-77
2021/04/20 03:14:21;;;;;;;;;;;;;;;1.02;100.00;99183.56;5053349;28;19925;-77
2021/04/20 03:16:48;;;;;;;;;;;;;;;1.01;100.00;99190.25;5085860;28;19931;-77
2021/04/20 03:19:17;;;;;;;;;;;;;;;0.99;100.00;99177.97;5053561;28;20256;-78
2021/04/20 03:21:43;;;;;;;;;;;;;;;0.65;100.00;99176.75;5085774;28;19932;-77
2021/04/20 03:24:33;;;;;;;;;;;;;;;0.65;100.00;99178.72;5053562;28;19935;-77
2021/04/20 03:27:00;;;;;;;;;;;;;;;0.68;100.00;99176.06;5050343;28;19931;-77
2021/04/20 03:29:27;;;;;;;;;;;;;;;0.77;100.00;99179.44;5052085;28;19925;-77
2021/04/20 03:31:53;;;;;;;;;;;;;;;0.75;100.00;99180.94;5053410;28;19929;-78
2021/04/20 03:34:35;;;;;;;;;;;;;;;0.78;100.00;99182.97;5052273;28;19947;-77
2021/04/20 03:37:06;;;;;;;;;;;;;;;0.74;100.00;99179.34;5053582;28;19932;-77
2021/04/20 03:39:44;;;;;;;;;;;;;;;0.71;100.00;99175.34;5053285;28;19931;-77
2021/04/20 03:42:16;;;;;;;;;;;;;;;0.74;100.00;99180.16;5053347;28;20463;-77
2021/04/20 03:44:44;;;;;;;;;;;;;;;0.81;100.00;99177.56;5053284;28;19928;-77
2021/04/20 03:47:18;;;;;;;;;;;;;;;0.81;100.00;99182.25;5035994;28;20339;-78
2021/04/20 03:49:47;;;;;;;;;;;;;;;0.86;100.00;99177.31;5053241;28;19925;-77
2021/04/20 03:52:20;;;;;;;;;;;;;;;1.03;100.00;99182.41;5053291;28;19925;-77
2021/04/20 03:54:48;;;;;;;;;;;;;;;1.12;100.00;99169.25;5052117;28;20402;-77
2021/04/20 03:57:15;;;;;;;;;;;;;;;1.11;100.00;99170.41;5053171;28;20443;-77
2021/04/20 03:59:44;;;;;;;;;;;;;;;1.10;100.00;99173.53;5052806;28;20319;-77
2021/04/20 04:02:11;;;;;;;;;;;;;;;0.95;100.00;99177.91;5053033;28;19925;-77
2021/04/20 04:04:41;;;;;;;;;;;;;;;0.91;100.00;99174.25;5053276;28;19925;-77
2021/04/20 04:07:09;;;;;;;;;;;;;;;0.77;100.00;99176.69;5053035;28;20257;-77
2021/04/20 04:09:36;;;;;;;;;;;;;;;0.59;100.00;99172.69;5053252;28;19925;-78
2021/04/20 04:12:05;;;;;;;;;;;;;;;0.62;100.00;99168.44;5052799;28;20023;-77
2021/04/20 04:14:33;;;;;;;;;;;;;;;0.53;100.00;99176.84;5053250;28;19979;-77
2021/04/20 04:17:02;;;;;;;;;;;;;;;0.51;100.00;99173.69;5053053;28;20025;-78
2021/04/20 04:19:35;;;;;;;;;;;;;;;0.50;100.00;99180.31;5053127;28;20360;-77
2021/04/20 04:22:03;;;;;;;;;;;;;;;0.53;100.00;99176.84;5055959;28;20423;-77
2021/04/20 04:24:35;;;;;;;;;;;;;;;0.65;100.00;99174.00;5043315;28;19954;-77
2021/04/20 04:27:05;;;;;;;;;;;;;;;0.69;100.00;99174.09;5056718;28;20430;-77
2021/04/20 04:29:33;;;;;;;;;;;;;;;0.67;100.00;99166.22;5056828;28;19925;-77
2021/04/20 04:32:00;;;;;;;;;;;;;;;0.63;100.00;99170.84;5057037;28;20364;-77
2021/04/20 04:34:27;;;;;;;;;;;;;;;0.65;100.00;99168.50;5056746;28;20011;-77
2021/04/20 04:36:54;;;;;;;;;;;;;;;0.60;100.00;99170.75;5056914;28;19972;-77
2021/04/20 04:39:21;;;;;;;;;;;;;;;0.70;100.00;99173.75;5056498;28;20059;-77
2021/04/20 04:41:49;;;;;;;;;;;;;;;0.71;100.00;99172.59;5056572;28;19929;-77
2021/04/20 04:44:15;;;;;;;;;;;;;;;0.68;100.00;99172.53;5056694;28;20027;-77
2021/04/20 04:46:43;;;;;;;;;;;;;;;0.64;100.00;99171.63;5056674;28;19925;-77
2021/04/20 04:49:10;;;;;;;;;;;;;;;0.61;100.00;99183.31;5056599;28;19928;-77
2021/04/20 04:51:38;;;;;;;;;;;;;;;0.58;100.00;99173.84;5056419;28;19925;-77
2021/04/20 04:54:08;;;;;;;;;;;;;;;0.54;100.00;99177.66;5055395;28;20010;-77
2021/04/20 04:56:35;;;;;;;;;;;;;;;0.52;100.00;99175.25;5054892;28;19932;-77
2021/04/20 04:59:05;;;;;;;;;;;;;;;0.48;100.00;99176.31;5056389;28;19925;-77
2021/04/20 05:01:33;;;;;;;;;;;;;;;0.53;100.00;99176.84;5072084;28;20287;-77
2021/04/20 05:04:06;;;;;;;;;;;;;;;0.49;100.00;99175.97;5055030;28;19925;-77
2021/04/20 05:06:34;;;;;;;;;;;;;;;0.53;100.00;99173.31;5056319;28;19931;-77
2021/04/20 05:09:01;;;;;;;;;;;;;;;0.51;100.00;99173.69;5054891;28;19925;-77
2021/04/20 05:11:28;;;;;;;;;;;;;;;0.52;100.00;99175.25;5055939;28;19924;-77
2021/04/20 05:13:55;;;;;;;;;;;;;;;0.57;100.00;99174.19;5055945;28;19931;-77
2021/04/20 05:16:22;;;;;;;;;;;;;;;0.54;100.00;99172.97;5038591;28;19935;-77
2021/04/20 05:18:49;;;;;;;;;;;;;;;0.63;100.00;99170.84;5056036;28;19924;-77
2021/04/20 05:21:16;;;;;;;;;;;;;;;0.77;100.00;99182.19;5088087;28;20020;-77
2021/04/20 05:23:43;;;;;;;;;;;;;;;0.98;100.00;99176.38;5055833;28;19964;-78
2021/04/20 05:26:10;;;;;;;;;;;;;;;1.16;100.00;99172.91;5055615;28;19925;-78
2021/04/20 05:28:37;;;;;;;;;;;;;;;1.23;100.00;99178.56;5055880;28;19931;-79
2021/04/20 05:31:04;;;;;;;;;;;;;;;1.27;100.00;99179.41;5055531;28;19929;-79
2021/04/20 05:33:30;;;;;;;;;;;;;;;1.48;100.00;99185.41;5055481;28;19925;-79
2021/04/20 05:36:07;;;;;;;;;;;;;;;1.68;100.00;99183.47;5070867;28;20009;-79
2021/04/20 05:38:34;;;;;;;;;;;;;;;1.75;100.00;99178.09;5055643;28;19933;-80
2021/04/20 05:41:02;;;;;;;;;;;;;;;1.94;100.00;99182.81;5055115;28;19957;-79
2021/04/20 05:43:29;;;;;;;;;;;;;;;2.14;100.00;99179.66;5055803;28;19925;-79
2021/04/20 05:45:55;;;;;;;;;;;;;;;2.41;100.00;99183.31;5055127;28;19932;-78
2021/04/20 05:48:22;;;;;;;;;;;;;;;2.70;100.00;99190.91;5054853;28;20284;-78
2021/04/20 05:50:52;;;;;;;;;;;;;;;2.81;100.00;99180.84;5054965;28;20368;-78
2021/04/20 05:53:18;;;;;;;;;;;;;;;2.82;100.00;99186.00;5054592;28;20299;-78
2021/04/20 05:55:46;;;;;;;;;;;;;;;3.17;100.00;99192.09;5051995;28;19982;-78
2021/04/20 05:58:13;;;;;;;;;;;;;;;3.67;100.00;99193.59;5053565;28;19925;-78
2021/04/20 06:00:40;;;;;;;;;;;;;;;3.81;100.00;99191.00;5055022;28;19935;-78
2021/04/20 06:03:07;;;;;;;;;;;;;;;3.79;100.00;99187.03;5055105;28;20015;-78
2021/04/20 06:05:34;;;;;;;;;;;;;;;3.65;100.00;99190.38;5054507;28;19929;-78
2021/04/20 06:08:04;;;;;;;;;;;;;;;3.62;100.00;99182.84;5069137;28;19925;-78
2021/04/20 06:10:32;;;;;;;;;;;;;;;3.77;100.00;99184.66;5054429;28;19932;-78
2021/04/20 06:12:59;;;;;;;;;;;;;;;4.22;100.00;99189.13;5054447;28;19924;-78
2021/04/20 06:15:26;;;;;;;;;;;;;;;4.55;100.00;99192.66;5054303;28;19992;-78
2021/04/20 06:17:52;;;;;;;;;;;;;;;4.89;100.00;99188.59;5054350;28;20015;-78
2021/04/20 06:20:21;;;;;;;;;;;;;;;5.27;100.00;99185.34;5086647;28;20083;-78
2021/04/20 06:22:49;;;;;;;;;;;;;;;5.56;100.00;99187.09;5054306;28;19932;-78
2021/04/20 06:25:16;;;;;;;;;;;;;;;5.79;100.00;99174.94;5054777;28;19925;-78
2021/04/20 06:27:46;;;;;;;;;;;;;;;6.15;100.00;99185.03;5053516;28;19931;-78
2021/04/20 06:30:14;;;;;;;;;;;;;;;6.52;100.00;99174.41;5054616;28;19924;-78
2021/04/20 06:32:42;;;;;;;;;;;;;;;6.61;100.00;99175.63;5054205;28;19928;-78
2021/04/20 06:35:17;;;;;;;;;;;;;;;6.90;100.00;99170.91;5053375;28;20295;-78
2021/04/20 06:37:45;;;;;;;;;;;;;;;7.31;100.00;99175.63;5085943;28;19952;-78
2021/04/20 06:40:14;;;;;;;;;;;;;;;7.85;100.00;99170.72;5054326;28;19987;-78
2021/04/20 06:42:46;;;;;;;;;;;;;;;8.20;100.00;99174.19;5054036;28;19933;-78
2021/04/20 06:45:16;;;;;;;;;;;;;;;8.54;100.00;99175.19;5069045;28;19932;-78
2021/04/20 06:47:48;;;;;;;;;;;;;;;9.13;100.00;99162.03;5052831;28;19925;-78
2021/04/20 06:50:17;;;;;;;;;;;;;;;9.80;100.00;99161.38;5086423;28;19948;-78
2021/04/20 06:52:52;;;;;;;;;;;;;;;10.55;100.00;99158.03;5054106;28;19929;-78
2021/04/20 06:55:24;;;;;;;;;;;;;;;11.19;100.00;99146.63;5054061;28;19925;-76
2021/04/20 06:58:06;;;;;;;;;;;;;;;11.50;100.00;99155.66;5054120;28;19925;-76
2021/04/20 07:00:52;;;;;;;;;;;;;;;11.86;100.00;99151.03;5053633;28;19936;-76
2021/04/20 07:03:25;;;;;;;;;;;;;;;12.45;100.00;99154.53;5085781;28;19925;-76
2021/04/20 07:06:07;;;;;;;;;;;;;;;12.90;100.00;99151.94;5053875;28;19924;-76
2021/04/20 07:08:44;;;;;;;;;;;;;;;13.39;100.00;99143.09;5052657;28;20291;-76
2021/04/20 07:11:11;;;;;;;;;;;;;;;13.43;100.00;99137.38;5053932;28;19924;-76
2021/04/20 07:13:41;;;;;;;;;;;;;;;13.67;100.00;99139.53;5085698;28;19970;-76
2021/04/20 07:16:32;;;;;;;;;;;;;;;13.58;100.00;99132.97;5052251;28;19925;-74
2021/04/20 07:19:17;;;;;;;;;;;;;;;13.65;100.00;99136.38;5053446;28;19924;-75
2021/04/20 07:21:44;;;;;;;;;;;;;;;13.98;100.00;99134.28;5053283;28;19933;-75
2021/04/20 07:24:10;;;;;;;;;;;;;;;14.14;100.00;99137.81;5053464;28;19931;-75
2021/04/20 07:26:45;;;;;;;;;;;;;;;14.68;100.00;99134.97;5052364;28;19925;-75
2021/04/20 07:29:11;;;;;;;;;;;;;;;15.07;100.00;99125.31;5085626;28;19943;-75
2021/04/20 07:31:57;;;;;;;;;;;;;;;15.51;100.00;99125.00;5053328;28;19929;-75
2021/04/20 07:34:26;;;;;;;;;;;;;;;15.48;100.00;99125.13;5052751;28;19968;-75
2021/04/20 07:37:12;;;;;;;;;;;;;;;15.20;100.00;99117.63;5051945;28;19925;-75
2021/04/20 07:39:53;;;;;;;;;;;;;;;15.26;100.00;99127.06;5051917;28;19973;-74
2021/04/20 07:42:39;;;;;;;;;;;;;;;15.55;100.00;99120.03;5080447;28;19925;-75
2021/04/20 07:45:24;;;;;;;;;;;;;;;15.90;100.00;99124.38;5052741;28;19924;-75
2021/04/20 07:47:55;;;;;;;;;;;;;;;16.01;100.00;99121.19;5065480;28;19925;-75
2021/04/20 07:50:24;;;;;;;;;;;;;;;16.01;100.00;99119.16;5063906;28;19936;-75
2021/04/20 07:53:12;;;;;;;;;;;;;;;16.24;100.00;99118.69;5035456;28;19933;-75
2021/04/20 07:56:05;;;;;;;;;;;;;;;16.25;100.00;99111.03;5041513;28;20327;-75
2021/04/20 07:58:40;;;;;;;;;;;;;;;16.13;100.00;99115.47;5036217;28;19951;-75
2021/04/20 08:01:13;;;;;;;;;;;;;;;15.98;100.00;99125.72;5053225;28;19924;-75
2021/04/20 08:03:47;;;;;;;;;;;;;;;15.80;100.00;99125.56;5051451;28;19925;-75
2021/04/20 08:06:16;;;;;;;;;;;;;;;16.08;100.00;99120.94;5048755;28;19933;-84
2021/04/20 08:08:47;;;;;;;;;;;;;;;15.92;100.00;99121.13;5074987;28;20537;-84
2021/04/20 08:11:14;;;;;;;;;;;;;;;16.16;100.00;99119.44;5046424;28;19935;-84
2021/04/20 08:13:53;;;;;;;;;;;;;;;16.22;100.00;99118.34;5049853;28;20566;-89
2021/04/20 08:16:23;;;;;;;;;;;;;;;16.39;100.00;99115.34;5055587;28;20496;-84
2021/04/20 08:19:00;;;;;;;;;;;;;;;16.83;100.00;99116.81;5079800;28;19944;-78
2021/04/20 08:21:28;;;;;;;;;;;;;;;16.50;100.00;99121.38;5052243;28;19924;-76
2021/04/20 08:23:56;;;;;;;;;;;;;;;16.21;100.00;99116.81;5052702;28;19925;-76
2021/04/20 08:26:27;;;;;;;;;;;;;;;16.32;100.00;99116.38;5053134;28;19925;-77
2021/04/20 08:28:58;;;;;;;;;;;;;;;16.37;100.00;99123.47;5056367;28;19925;-77
2021/04/20 08:31:45;;;;;;;;;;;;;;;16.12;100.00;99113.91;5086518;28;19951;-78
2021/04/20 08:34:27;;;;;;;;;;;;;;;15.81;100.00;99115.09;5039789;28;19935;-77
2021/04/20 08:37:22;;;;;;;;;;;;;;;15.91;100.00;99114.72;5053399;28;20376;-77
2021/04/20 08:40:06;;;;;;;;;;;;;;;15.28;100.00;99114.09;5058091;28;19925;-77
2021/04/20 08:42:48;;;;;;;;;;;;;;;15.06;100.00;99116.06;5051402;28;20410;-74
2021/04/20 08:45:34;;;;;;;;;;;;;;;15.78;100.00;99113.19;5049878;28;20559;-74
2021/04/20 08:48:04;;;;;;;;;;;;;;;15.84;100.00;99114.94;5051265;28;20027;-74
2021/04/20 08:50:34;;;;;;;;;;;;;;;15.79;100.00;99115.56;5052722;28;19940;-77
2021/04/20 08:53:01;;;;;;;;;;;;;;;15.47;100.00;99123.53;5052468;28;20334;-77
2021/04/20 08:55:46;;;;;;;;;;;;;;;15.72;100.00;99118.59;5053856;28;19929;-76
2021/04/20 08:58:32;;;;;;;;;;;;;;;15.86;100.00;99120.94;5044494;28;20391;-77
2021/04/20 09:01:17;;;;;;;;;;;;;;;15.92;100.00;99116.28;5051734;28;19932;-77
2021/04/20 09:03:59;;;;;;;;;;;;;;;16.25;100.00;99117.44;5051876;28;19929;-77
2021/04/20 09:09:47;;;;;;;;;;;;;;;16.23;100.00;99113.53;5058736;28;20090;-77
2021/04/20 09:12:14;;;;;;;;;;;;;;;16.34;100.00;99113.91;5059122;28;20642;-77
2021/04/20 09:14:42;;;;;;;;;;;;;;;16.04;100.00;99106.97;5088563;28;19925;-77
2021/04/20 09:17:18;;;;;;;;;;;;;;;16.27;100.00;99102.88;5055629;28;19998;-77
2021/04/20 09:19:49;;;;;;;;;;;;;;;15.68;100.00;99101.06;5055955;28;19933;-77
2021/04/20 09:22:22;;;;;;;;;;;;;;;15.71;100.00;99100.16;5055709;28;19955;-77
2021/04/20 09:24:51;;;;;;;;;;;;;;;16.04;100.00;99104.16;5055890;28;19924;-77
2021/04/20 09:27:37;;;;;;;;;;;;;;;16.36;100.00;99102.16;5076570;28;19992;-78
2021/04/20 09:30:06;;;;;;;;;;;;;;;16.49;100.00;99097.25;5054516;28;19924;-76
2021/04/20 09:32:38;;;;;;;;;;;;;;;16.17;100.00;99096.44;5087292;28;19951;-77
2021/04/20 09:35:05;;;;;;;;;;;;;;;16.07;100.00;99105.25;5055716;28;19929;-77
2021/04/20 09:37:33;;;;;;;;;;;;;;;16.35;100.00;99098.56;5055620;28;19925;-77
2021/04/20 09:40:01;;;;;;;;;;;;;;;16.13;100.00;99090.13;5054164;28;19983;-77
2021/04/20 09:42:28;;;;;;;;;;;;;;;16.53;100.00;99100.69;5055472;28;19925;-77
2021/04/20 09:45:14;;;;;;;;;;;;;;;16.64;100.00;99092.59;5055402;28;19933;-77
2021/04/20 09:48:00;;;;;;;;;;;;;;;16.85;100.00;99097.41;5055177;28;20376;-76
2021/04/20 09:50:32;;;;;;;;;;;;;;;17.13;100.00;99096.25;5070784;28;19932;-76
2021/04/20 09:53:09;;;;;;;;;;;;;;;16.81;100.00;99091.13;5052032;28;19968;-77
2021/04/20 09:55:41;;;;;;;;;;;;;;;16.58;100.00;99083.19;5053071;28;19932;-76
2021/04/20 09:58:08;;;;;;;;;;;;;;;16.87;100.00;99095.69;5055019;28;20374;-77
2021/04/20 10:00:36;;;;;;;;;;;;;;;16.92;100.00;99094.31;5054598;28;20000;-76
2021/04/20 10:03:23;;;;;;;;;;;;;;;16.78;100.00;99098.47;5055022;28;19931;-77
2021/04/20 10:06:09;;;;;;;;;;;;;;;16.73;100.00;99089.81;5054783;28;19925;-77
2021/04/20 10:08:36;;;;;;;;;;;;;;;17.21;100.00;99091.84;5054505;28;20359;-76
2021/04/20 10:11:14;;;;;;;;;;;;;;;17.40;100.00;99087.81;5053877;28;20368;-76
2021/04/20 10:13:47;;;;;;;;;;;;;;;16.75;100.00;99088.09;5049644;28;19940;-77
2021/04/20 10:16:20;;;;;;;;;;;;;;;16.91;100.00;99085.03;5065827;28;20313;-77
2021/04/20 10:19:02;;;;;;;;;;;;;;;16.35;100.00;99086.47;5082279;28;19925;-76
2021/04/20 10:21:33;;;;;;;;;;;;;;;15.96;100.00;99083.09;5087069;28;19932;-77
2021/04/20 10:24:07;;;;;;;;;;;;;;;15.94;100.00;99076.38;5054827;28;19925;-76
2021/04/20 10:26:47;;;;;;;;;;;;;;;15.66;100.00;99086.63;5054704;28;19943;-76
2021/04/20 10:29:17;;;;;;;;;;;;;;;16.20;100.00;99087.03;5053172;28;19971;-77
2021/04/20 10:31:52;;;;;;;;;;;;;;;16.37;100.00;99076.31;5086646;28;19934;-77
2021/04/20 10:34:19;;;;;;;;;;;;;;;16.65;100.00;99082.88;5086710;28;19925;-77
2021/04/20 10:36:50;;;;;;;;;;;;;;;16.14;100.00;99082.47;5054626;28;20011;-76
2021/04/20 10:39:19;;;;;;;;;;;;;;;16.74;100.00;99083.72;5054702;28;20079;-77
2021/04/20 10:41:46;;;;;;;;;;;;;;;17.25;100.00;99078.38;5054311;28;19925;-77
2021/04/20 10:44:14;;;;;;;;;;;;;;;17.46;100.00;99071.84;5054271;28;20379;-77
2021/04/20 10:46:41;;;;;;;;;;;;;;;17.65;100.00;99074.22;5054431;28;19928;-77
2021/04/20 10:49:14;;;;;;;;;;;;;;;17.96;100.00;99074.81;5054220;28;19940;-77
2021/04/20 10:51:42;;;;;;;;;;;;;;;17.41;100.00;99073.22;5054418;28;19925;-76
2021/04/20 10:54:09;;;;;;;;;;;;;;;16.51;100.00;99066.56;5067258;28;19931;-76
2021/04/20 10:56:37;;;;;;;;;;;;;;;17.02;100.00;99073.31;5053716;28;19924;-76
2021/04/20 10:59:08;;;;;;;;;;;;;;;17.14;100.00;99069.56;5052282;28;20021;-76
2021/04/20 11:01:40;;;;;;;;;;;;;;;16.94;100.00;99063.56;5053427;28;19929;-77
2021/04/20 11:04:08;;;;;;;;;;;;;;;17.13;100.00;99070.84;5053947;28;19933;-76
2021/04/20 11:06:53;;;;;;;;;;;;;;;16.70;100.00;99076.66;5054149;28;19940;-77
2021/04/20 11:09:30;;;;;;;;;;;;;;;16.34;100.00;99070.81;5053953;28;19947;-78
2021/04/20 11:11:56;;;;;;;;;;;;;;;16.37;100.00;99067.06;5046532;28;19925;-78
2021/04/20 11:14:36;;;;;;;;;;;;;;;16.36;100.00;99065.50;5050258;28;19925;-78
2021/04/20 11:17:03;;;;;;;;;;;;;;;16.19;100.00;99068.53;5057488;28;19932;-80
2021/04/20 11:19:30;;;;;;;;;;;;;;;16.06;100.00;99070.66;5050693;28;19992;-78
2021/04/20 11:22:00;;;;;;;;;;;;;;;15.89;100.00;99072.09;5051098;28;19947;-78
2021/04/20 11:24:29;;;;;;;;;;;;;;;15.72;100.00;99075.59;5051218;28;19991;-78
2021/04/20 11:27:07;;;;;;;;;;;;;;;15.69;100.00;99070.88;5051102;28;19925;-78
2021/04/20 11:29:42;;;;;;;;;;;;;;;15.46;100.00;99069.28;5050997;28;19943;-79
2021/04/20 11:32:11;;;;;;;;;;;;;;;15.58;100.00;99073.28;5052782;28;19925;-78
2021/04/20 11:34:38;;;;;;;;;;;;;;;15.55;100.00;99080.63;5051054;28;19936;-78
2021/04/20 11:37:07;;;;;;;;;;;;;;;15.53;100.00;99077.47;5052516;28;19928;-78
2021/04/20 11:39:48;;;;;;;;;;;;;;;15.34;100.00;99074.91;5052710;28;19925;-78
2021/04/20 11:42:17;;;;;;;;;;;;;;;15.18;100.00;99075.84;5039865;28;20384;-78
2021/04/20 11:44:51;;;;;;;;;;;;;;;15.06;100.00;99076.66;5052550;28;19935;-78
2021/04/20 11:47:19;;;;;;;;;;;;;;;14.77;100.00;99076.03;5052593;28;19955;-78
2021/04/20 11:49:52;;;;;;;;;;;;;;;14.63;100.00;99078.53;5051187;28;20015;-78
2021/04/20 11:52:29;;;;;;;;;;;;;;;14.62;100.00;99088.97;5052464;28;20387;-78
2021/04/20 11:55:01;;;;;;;;;;;;;;;14.60;100.00;99085.81;5052742;28;20330;-77
2021/04/20 11:57:29;;;;;;;;;;;;;;;14.58;100.00;99084.69;5039018;28;19997;-78
2021/04/20 11:59:56;;;;;;;;;;;;;;;14.53;100.00;99080.41;5052066;28;19995;-78
2021/04/20 12:02:29;;;;;;;;;;;;;;;14.51;100.00;99091.31;5084139;28;19971;-78
2021/04/20 12:05:07;;;;;;;;;;;;;;;14.58;100.00;99082.69;5052574;28;19925;-78
2021/04/20 12:07:35;;;;;;;;;;;;;;;14.64;100.00;99083.69;5052389;28;19936;-79
2021/04/20 12:10:03;;;;;;;;;;;;;;;14.64;100.00;99083.69;5052287;28;20024;-78
2021/04/20 12:12:34;;;;;;;;;;;;;;;14.67;100.00;99077.16;5084117;28;19951;-78
2021/04/20 12:15:02;;;;;;;;;;;;;;;14.69;100.00;99076.72;5067979;28;19925;-78
2021/04/20 12:17:30;;;;;;;;;;;;;;;14.68;100.00;99075.91;5052042;28;20379;-78
2021/04/20 12:20:05;;;;;;;;;;;;;;;14.70;100.00;99076.25;5052239;28;20368;-78
2021/04/20 12:22:32;;;;;;;;;;;;;;;14.76;100.00;99074.47;5052088;28;20422;-79
2021/04/20 12:24:59;;;;;;;;;;;;;;;14.80;100.00;99080.75;5052200;28;20030;-79
2021/04/20 12:27:29;;;;;;;;;;;;;;;14.98;100.00;99080.94;5050559;28;19971;-79
2021/04/20 12:29:56;;;;;;;;;;;;;;;15.00;100.00;99089.72;5050901;28;20405;-78
2021/04/20 12:32:45;;;;;;;;;;;;;;;14.97;100.00;99081.41;5065446;28;19929;-78
2021/04/20 12:35:13;;;;;;;;;;;;;;;14.96;100.00;99082.66;5083850;28;19957;-78
2021/04/20 12:37:40;;;;;;;;;;;;;;;15.04;100.00;99081.19;5067275;28;19924;-78
2021/04/20 12:40:10;;;;;;;;;;;;;;;15.06;100.00;99085.09;5052240;28;20407;-78
2021/04/20 12:42:39;;;;;;;;;;;;;;;15.15;100.00;99088.00;5054635;28;19925;-77
2021/04/20 12:45:09;;;;;;;;;;;;;;;15.05;100.00;99085.56;5056623;28;19925;-77
2021/04/20 12:47:37;;;;;;;;;;;;;;;15.05;100.00;99086.34;5055664;28;20295;-77
2021/04/20 12:50:06;;;;;;;;;;;;;;;15.14;100.00;99086.44;5088819;28;19925;-78
2021/04/20 12:52:33;;;;;;;;;;;;;;;15.28;100.00;99088.00;5055016;28;20249;-77
2021/04/20 12:55:09;;;;;;;;;;;;;;;15.10;100.00;99088.56;5055725;28;19939;-78
2021/04/20 12:57:37;;;;;;;;;;;;;;;15.26;100.00;99082.81;5071880;28;19948;-77
2021/04/20 13:00:09;;;;;;;;;;;;;;;15.32;100.00;99089.44;5071578;28;19925;-77
2021/04/20 13:02:39;;;;;;;;;;;;;;;15.32;100.00;99083.81;5055157;28;19929;-78
2021/04/20 13:05:07;;;;;;;;;;;;;;;15.34;100.00;99074.91;5056645;28;19951;-78